createdAt,value
2023-08-26T00:01:42.636Z,69.40
2023-08-26T00:04:10.036Z,69.50
2023-08-26T00:06:37.688Z,69.80
2023-08-26T00:09:05.374Z,69.90
2023-08-26T00:11:32.735Z,69.50
2023-08-26T00:14:00.077Z,69.70
2023-08-26T00:16:27.511Z,69.40
2023-08-26T00:18:56.804Z,69.40
2023-08-26T00:21:24.209Z,69.40
2023-08-26T00:23:51.592Z,69.50
2023-08-26T00:26:19.028Z,69.00
2023-08-26T00:28:46.861Z,69.10
2023-08-26T00:31:14.455Z,68.90
2023-08-26T00:33:41.857Z,69.40
2023-08-26T00:36:11.190Z,69.10
2023-08-26T00:38:38.647Z,69.10
2023-08-26T00:41:06.070Z,68.80
2023-08-26T00:43:34.676Z,68.70
2023-08-26T00:46:02.382Z,69.00
2023-08-26T00:48:29.874Z,68.70
2023-08-26T00:50:57.588Z,68.20
2023-08-26T00:53:26.401Z,68.60
2023-08-26T00:55:54.029Z,69.20
2023-08-26T00:58:21.839Z,69.00
2023-08-26T01:00:50.073Z,68.70
2023-08-26T01:03:17.566Z,69.00
2023-08-26T01:05:45.444Z,69.10
2023-08-26T01:08:14.486Z,69.10
2023-08-26T01:10:56.132Z,69.00
2023-08-26T01:13:29.497Z,68.80
2023-08-26T01:15:58.839Z,68.40
2023-08-26T01:18:26.714Z,68.30
2023-08-26T01:20:55.257Z,68.40
2023-08-26T01:23:33.973Z,68.60
2023-08-26T01:26:01.986Z,67.90
2023-08-26T01:28:29.298Z,68.00
2023-08-26T01:30:59.491Z,68.90
2023-08-26T01:33:32.646Z,69.00
2023-08-26T01:36:04.114Z,69.00
2023-08-26T01:38:33.558Z,69.10
2023-08-26T01:41:03.549Z,69.10
2023-08-26T01:43:34.691Z,69.30
2023-08-26T01:46:02.109Z,69.40
2023-08-26T01:48:29.468Z,69.10
2023-08-26T01:50:57.092Z,69.00
2023-08-26T01:53:24.479Z,68.80
2023-08-26T01:55:53.213Z,68.90
2023-08-26T01:58:20.998Z,69.10
2023-08-26T02:00:49.070Z,69.30
2023-08-26T02:03:16.459Z,69.20
2023-08-26T02:05:43.941Z,68.90
2023-08-26T02:08:11.258Z,69.20
2023-08-26T02:10:38.550Z,69.20
2023-08-26T02:13:07.173Z,69.40
2023-08-26T02:15:35.796Z,69.40
2023-08-26T02:18:03.316Z,69.30
2023-08-26T02:20:30.631Z,69.20
2023-08-26T02:22:58.123Z,69.00
2023-08-26T02:25:28.600Z,69.20
2023-08-26T02:27:57.057Z,69.10
2023-08-26T02:30:26.043Z,69.90
2023-08-26T02:32:53.425Z,69.80
2023-08-26T02:35:20.798Z,69.60
2023-08-26T02:37:48.089Z,69.80
2023-08-26T02:40:15.478Z,69.90
2023-08-26T02:42:42.837Z,69.70
2023-08-26T02:45:10.932Z,69.90
2023-08-26T02:47:39.613Z,70.10
2023-08-26T02:50:07.645Z,70.00
2023-08-26T02:52:35.203Z,70.10
2023-08-26T02:55:02.632Z,70.30
2023-08-26T02:57:29.986Z,70.00
2023-08-26T02:59:57.264Z,70.30
2023-08-26T03:02:26.123Z,70.70
2023-08-26T03:04:56.192Z,71.10
2023-08-26T03:07:23.559Z,71.30
2023-08-26T03:09:51.104Z,71.40
2023-08-26T03:12:18.530Z,71.10
2023-08-26T03:14:45.963Z,71.70
2023-08-26T03:17:13.241Z,71.80
2023-08-26T03:19:42.035Z,71.80
2023-08-26T03:22:10.711Z,71.50
2023-08-26T03:24:39.300Z,71.20
2023-08-26T03:27:06.778Z,71.20
2023-08-26T03:29:34.110Z,71.40
2023-08-26T03:32:01.504Z,71.50
2023-08-26T03:34:30.373Z,71.30
2023-08-26T03:36:57.829Z,71.40
2023-08-26T03:39:26.479Z,71.50
2023-08-26T03:41:54.060Z,71.40
2023-08-26T03:44:21.465Z,71.30
2023-08-26T03:46:49.915Z,71.00
2023-08-26T03:49:17.273Z,71.10
2023-08-26T03:51:44.852Z,71.40
2023-08-26T03:54:12.360Z,71.70
2023-08-26T03:56:41.091Z,71.90
2023-08-26T03:59:09.223Z,72.20
2023-08-26T04:01:39.125Z,72.10
2023-08-26T04:04:06.998Z,71.90
2023-08-26T04:06:34.730Z,72.10
2023-08-26T04:09:03.649Z,72.40
2023-08-26T04:11:31.360Z,72.40
2023-08-26T04:14:01.133Z,72.40
2023-08-26T04:16:29.732Z,72.30
2023-08-26T04:18:57.131Z,72.30
2023-08-26T04:21:24.504Z,72.30
2023-08-26T04:23:51.810Z,72.10
2023-08-26T04:26:19.188Z,72.30
2023-08-26T04:28:47.409Z,72.30
2023-08-26T04:31:16.095Z,72.50
2023-08-26T04:33:45.352Z,72.60
2023-08-26T04:36:15.953Z,72.50
2023-08-26T04:38:43.253Z,72.20
2023-08-26T04:41:10.902Z,72.80
2023-08-26T04:43:38.327Z,72.00
2023-08-26T04:46:06.502Z,72.10
2023-08-26T04:48:35.177Z,72.30
2023-08-26T04:51:05.365Z,72.00
2023-08-26T04:53:34.360Z,71.70
2023-08-26T04:56:01.942Z,71.90
2023-08-26T04:58:29.321Z,71.90
2023-08-26T05:00:56.823Z,72.30
2023-08-26T05:03:24.272Z,72.00
2023-08-26T05:05:53.124Z,72.50
2023-08-26T05:08:20.463Z,72.40
2023-08-26T05:10:47.787Z,72.60
2023-08-26T05:13:15.190Z,73.00
2023-08-26T05:15:42.587Z,72.00
2023-08-26T05:18:09.945Z,72.70
2023-08-26T05:20:37.453Z,72.80
2023-08-26T05:23:06.190Z,73.60
2023-08-26T05:25:33.514Z,73.30
2023-08-26T05:28:00.887Z,73.30
2023-08-26T05:30:30.046Z,72.90
2023-08-26T05:32:57.589Z,73.30
2023-08-26T05:35:26.772Z,73.30
2023-08-26T05:37:54.200Z,72.90
2023-08-26T05:40:27.904Z,73.30
2023-08-26T05:42:56.480Z,73.40
2023-08-26T05:45:25.396Z,72.50
2023-08-26T05:47:52.959Z,73.00
2023-08-26T05:50:21.572Z,74.20
2023-08-26T05:52:48.940Z,73.80
2023-08-26T05:55:16.772Z,74.70
2023-08-26T05:57:45.465Z,74.80
2023-08-26T06:00:14.341Z,74.80
2023-08-26T06:02:44.625Z,74.80
2023-08-26T06:05:15.498Z,75.10
2023-08-26T06:07:43.088Z,75.00
2023-08-26T06:10:11.091Z,75.20
2023-08-26T06:12:39.643Z,75.40
2023-08-26T06:15:12.045Z,76.20
2023-08-26T06:17:42.422Z,75.70
2023-08-26T06:20:15.264Z,75.30
2023-08-26T06:22:43.877Z,75.40
2023-08-26T06:25:12.038Z,75.80
2023-08-26T06:27:39.431Z,75.20
2023-08-26T06:30:08.274Z,75.60
2023-08-26T06:32:37.250Z,75.00
2023-08-26T06:35:06.349Z,75.00
2023-08-26T06:37:35.180Z,75.10
2023-08-26T06:40:04.578Z,74.80
2023-08-26T06:42:31.977Z,75.00
2023-08-26T06:45:03.498Z,75.00
2023-08-26T06:47:30.916Z,75.00
2023-08-26T06:49:59.621Z,74.80
2023-08-26T06:52:28.815Z,75.40
2023-08-26T06:54:56.146Z,75.40
2023-08-26T06:57:23.551Z,75.40
2023-08-26T06:59:51.096Z,75.40
2023-08-26T07:02:18.384Z,75.60
2023-08-26T07:04:46.054Z,75.60
2023-08-26T07:07:14.769Z,75.30
2023-08-26T07:09:42.412Z,75.70
2023-08-26T07:12:09.771Z,76.10
2023-08-26T07:14:37.080Z,76.00
2023-08-26T07:17:04.461Z,76.40
2023-08-26T07:19:31.762Z,76.40
2023-08-26T07:21:59.114Z,76.60
2023-08-26T07:24:27.733Z,76.50
2023-08-26T07:26:55.068Z,76.70
2023-08-26T07:29:22.483Z,76.80
2023-08-26T07:31:49.817Z,77.00
2023-08-26T07:34:17.132Z,77.10
2023-08-26T07:36:44.514Z,76.40
2023-08-26T07:39:11.850Z,76.20
2023-08-26T07:41:40.506Z,76.10
2023-08-26T07:44:07.832Z,76.10
2023-08-26T07:49:06.395Z,76.30
2023-08-26T07:51:33.772Z,75.80
2023-08-26T07:54:01.091Z,75.90
2023-08-26T07:56:28.382Z,76.20
2023-08-26T07:58:57.083Z,76.50
2023-08-26T08:01:24.463Z,76.50
2023-08-26T08:03:51.983Z,76.50
2023-08-26T08:06:19.368Z,76.50
2023-08-26T08:08:46.736Z,76.80
2023-08-26T08:11:14.023Z,76.90
2023-08-26T08:13:41.329Z,76.70
2023-08-26T08:16:10.055Z,76.80
2023-08-26T08:18:38.254Z,77.00
2023-08-26T08:21:05.631Z,77.10
2023-08-26T08:23:33.028Z,76.70
2023-08-26T08:26:00.336Z,76.50
2023-08-26T08:28:27.688Z,76.40
2023-08-26T08:30:55.058Z,76.40
2023-08-26T08:33:23.791Z,76.20
2023-08-26T08:35:51.819Z,76.10
2023-08-26T08:38:19.228Z,76.00
2023-08-26T08:40:46.714Z,76.00
2023-08-26T08:43:14.821Z,76.00
2023-08-26T08:45:43.222Z,76.40
2023-08-26T08:48:11.072Z,76.30
2023-08-26T08:50:40.423Z,76.20
2023-08-26T08:53:10.339Z,75.60
2023-08-26T08:55:38.578Z,75.60
2023-08-26T08:58:06.223Z,75.10
2023-08-26T09:00:33.766Z,74.50
2023-08-26T09:03:05.258Z,74.10
2023-08-26T09:05:33.235Z,74.30
2023-08-26T09:08:03.381Z,74.20
2023-08-26T09:10:33.039Z,73.70
2023-08-26T09:13:00.552Z,74.10
2023-08-26T09:15:28.317Z,73.80
2023-08-26T09:18:01.604Z,73.90
2023-08-26T09:20:30.713Z,73.60
2023-08-26T09:23:06.211Z,73.40
2023-08-26T09:25:33.824Z,73.80
2023-08-26T09:28:01.278Z,73.50
2023-08-26T09:30:28.682Z,73.30
2023-08-26T09:32:56.350Z,73.70
2023-08-26T09:37:59.424Z,73.70
2023-08-26T09:40:28.639Z,73.20
2023-08-26T09:42:56.460Z,73.00
2023-08-26T09:45:24.434Z,72.90
2023-08-26T09:47:52.322Z,72.10
2023-08-26T09:50:31.409Z,72.00
2023-08-26T09:52:59.378Z,71.50
2023-08-26T09:55:29.023Z,71.10
2023-08-26T09:57:56.634Z,70.80
2023-08-26T10:00:24.566Z,71.00
2023-08-26T10:02:52.906Z,71.00
2023-08-26T10:05:22.975Z,69.80
2023-08-26T10:07:52.472Z,69.80
2023-08-26T10:10:34.123Z,69.80
2023-08-26T10:13:05.178Z,68.70
2023-08-26T10:15:34.521Z,67.80
2023-08-26T10:18:09.453Z,68.60
2023-08-26T10:20:37.658Z,67.80
2023-08-26T10:23:07.222Z,67.80
2023-08-26T10:25:36.250Z,67.30
2023-08-26T10:28:05.132Z,66.40
2023-08-26T10:30:33.198Z,66.20
2023-08-26T10:33:01.997Z,65.50
2023-08-26T10:35:29.844Z,65.40
2023-08-26T10:38:09.508Z,64.80
2023-08-26T10:40:38.277Z,62.20
2023-08-26T10:43:08.335Z,62.40
2023-08-26T10:45:46.211Z,62.60
2023-08-26T10:48:13.531Z,62.40
2023-08-26T10:50:41.790Z,60.50
2023-08-26T10:53:15.221Z,59.90
2023-08-26T10:55:44.404Z,57.80
2023-08-26T10:58:15.576Z,58.20
2023-08-26T11:00:44.361Z,59.40
2023-08-26T11:03:13.661Z,59.00
2023-08-26T11:05:43.424Z,57.30
2023-08-26T11:08:11.472Z,55.20
2023-08-26T11:10:40.449Z,55.60
2023-08-26T11:13:10.621Z,55.90
2023-08-26T11:15:39.912Z,55.40
2023-08-26T11:18:08.606Z,54.90
2023-08-26T11:20:36.954Z,54.20
2023-08-26T11:23:06.384Z,54.60
2023-08-26T11:25:34.903Z,53.70
2023-08-26T11:28:04.325Z,54.00
2023-08-26T11:30:37.296Z,54.00
2023-08-26T11:33:10.946Z,51.60
2023-08-26T11:35:39.517Z,51.90
2023-08-26T11:38:08.497Z,51.60
2023-08-26T11:40:36.392Z,51.90
2023-08-26T11:43:07.657Z,50.90
2023-08-26T11:45:36.612Z,50.60
2023-08-26T11:48:04.667Z,50.80
2023-08-26T11:50:34.454Z,49.90
2023-08-26T11:53:03.880Z,49.90
2023-08-26T11:55:32.061Z,47.80
2023-08-26T11:58:01.317Z,49.80
2023-08-26T12:00:29.237Z,49.30
2023-08-26T12:03:03.860Z,48.80
2023-08-26T12:05:43.208Z,48.90
2023-08-26T12:08:14.888Z,48.90
2023-08-26T12:10:42.605Z,49.90
2023-08-26T12:13:09.995Z,49.90
2023-08-26T12:15:40.673Z,49.60
2023-08-26T12:18:10.558Z,48.00
2023-08-26T12:20:38.631Z,48.90
2023-08-26T12:23:07.120Z,46.80
2023-08-26T12:25:36.623Z,47.60
2023-08-26T12:28:09.617Z,47.80
2023-08-26T12:30:37.676Z,47.80
2023-08-26T12:33:08.155Z,47.30
2023-08-26T12:35:39.438Z,48.40
2023-08-26T12:38:07.363Z,47.00
2023-08-26T12:40:35.974Z,46.80
2023-08-26T12:43:05.386Z,46.00
2023-08-26T12:45:34.010Z,45.40
2023-08-26T12:48:01.957Z,44.70
2023-08-26T12:50:29.311Z,43.80
2023-08-26T12:52:58.007Z,42.30
2023-08-26T12:55:25.623Z,43.00
2023-08-26T12:57:53.364Z,42.40
2023-08-26T13:00:20.857Z,41.50
2023-08-26T13:02:49.463Z,41.00
2023-08-26T13:05:16.974Z,42.70
2023-08-26T13:07:45.389Z,40.50
2023-08-26T13:10:14.201Z,40.10
2023-08-26T13:12:44.646Z,39.60
2023-08-26T13:15:13.552Z,40.20
2023-08-26T13:17:41.114Z,40.00
2023-08-26T13:20:11.920Z,40.10
2023-08-26T13:22:40.337Z,39.60
2023-08-26T13:25:09.528Z,38.90
2023-08-26T13:27:38.252Z,40.90
2023-08-26T13:30:06.850Z,40.00
2023-08-26T13:32:34.200Z,40.50
2023-08-26T13:35:01.594Z,39.70
2023-08-26T13:37:29.032Z,39.90
2023-08-26T13:39:56.501Z,40.20
2023-08-26T13:42:23.949Z,39.80
2023-08-26T13:44:52.652Z,39.40
2023-08-26T13:47:21.535Z,39.70
2023-08-26T13:49:49.955Z,39.60
2023-08-26T13:52:18.161Z,39.40
2023-08-26T13:54:45.621Z,39.40
2023-08-26T13:57:13.240Z,39.70
2023-08-26T13:59:40.738Z,39.60
2023-08-26T14:02:09.445Z,39.70
2023-08-26T14:04:36.821Z,38.70
2023-08-26T14:07:04.571Z,39.90
2023-08-26T14:09:32.080Z,39.10
2023-08-26T14:12:00.948Z,40.10
2023-08-26T14:14:28.424Z,41.30
2023-08-26T14:16:55.879Z,40.40
2023-08-26T14:19:24.631Z,40.20
2023-08-26T14:21:51.953Z,40.70
2023-08-26T14:24:19.352Z,41.30
2023-08-26T14:26:47.007Z,41.80
2023-08-26T14:29:14.484Z,41.90
2023-08-26T14:31:41.903Z,42.70
2023-08-26T14:34:10.908Z,42.40
2023-08-26T14:36:41.219Z,42.00
2023-08-26T14:39:10.380Z,42.20
2023-08-26T14:41:37.803Z,43.00
2023-08-26T14:44:06.188Z,42.70
2023-08-26T14:46:33.990Z,42.80
2023-08-26T14:49:01.482Z,42.10
2023-08-26T14:51:28.955Z,42.60
2023-08-26T14:53:57.640Z,43.20
2023-08-26T14:56:25.250Z,43.60
2023-08-26T14:58:52.615Z,43.60
2023-08-26T15:01:20.347Z,44.30
2023-08-26T15:03:48.616Z,44.10
2023-08-26T15:06:16.256Z,43.40
2023-08-26T15:08:43.728Z,43.60
2023-08-26T15:11:12.381Z,42.60
2023-08-26T15:13:39.751Z,43.50
2023-08-26T15:16:07.142Z,43.80
2023-08-26T15:18:34.624Z,44.00
2023-08-26T15:21:02.190Z,43.40
2023-08-26T15:23:29.664Z,42.70
2023-08-26T15:25:57.180Z,42.60
2023-08-26T15:28:25.860Z,42.50
2023-08-26T15:30:54.488Z,42.60
2023-08-26T15:33:22.997Z,43.30
2023-08-26T15:35:50.908Z,43.40
2023-08-26T15:38:18.568Z,42.60
2023-08-26T15:40:52.052Z,42.60
2023-08-26T15:43:19.418Z,42.90
2023-08-26T15:45:48.179Z,43.60
2023-08-26T15:48:15.803Z,44.00
2023-08-26T15:50:43.843Z,44.10
2023-08-26T15:53:13.392Z,44.60
2023-08-26T15:55:40.877Z,44.50
2023-08-26T15:58:08.308Z,43.60
2023-08-26T16:00:36.135Z,44.80
2023-08-26T16:03:05.593Z,45.00
2023-08-26T16:05:34.118Z,44.60
2023-08-26T16:08:01.660Z,44.60
2023-08-26T16:10:29.315Z,44.80
2023-08-26T16:12:56.917Z,45.40
2023-08-26T16:15:24.595Z,45.10
2023-08-26T16:17:52.171Z,45.50
2023-08-26T16:20:20.918Z,45.70
2023-08-26T16:22:48.286Z,46.00
2023-08-26T16:25:15.774Z,45.40
2023-08-26T16:27:43.421Z,46.30
2023-08-26T16:30:11.514Z,46.40
2023-08-26T16:32:38.936Z,46.70
2023-08-26T16:35:07.372Z,46.80
2023-08-26T16:37:36.248Z,47.00
2023-08-26T16:40:04.106Z,46.90
2023-08-26T16:42:31.566Z,47.10
2023-08-26T16:44:58.915Z,46.80
2023-08-26T16:47:26.458Z,46.40
2023-08-26T16:49:53.840Z,46.40
2023-08-26T16:52:21.609Z,47.00
2023-08-26T16:54:52.160Z,46.50
2023-08-26T16:57:20.103Z,45.80
2023-08-26T16:59:47.652Z,46.30
2023-08-26T17:02:15.803Z,46.50
2023-08-26T17:04:43.365Z,46.50
2023-08-26T17:07:14.008Z,46.40
2023-08-26T17:09:41.762Z,46.70
2023-08-26T17:12:10.523Z,46.70
2023-08-26T17:14:38.024Z,46.80
2023-08-26T17:17:05.684Z,47.20
2023-08-26T17:19:36.073Z,46.70
2023-08-26T17:22:16.915Z,47.20
2023-08-26T17:24:46.740Z,46.40
2023-08-26T17:27:15.827Z,46.80
2023-08-26T17:29:43.177Z,46.20
2023-08-26T17:32:12.568Z,46.50
2023-08-26T17:34:40.663Z,46.40
2023-08-26T17:37:08.029Z,46.50
2023-08-26T17:39:35.371Z,45.80
2023-08-26T17:42:04.724Z,46.70
2023-08-26T17:44:34.133Z,46.30
2023-08-26T17:47:01.439Z,46.50
2023-08-26T17:49:28.847Z,46.60
2023-08-26T17:51:56.500Z,46.60
2023-08-26T17:54:23.886Z,46.70
2023-08-26T17:56:51.182Z,46.90
2023-08-26T17:59:18.576Z,46.60
2023-08-26T18:01:47.260Z,47.20
2023-08-26T18:04:14.696Z,47.00
2023-08-26T18:06:43.578Z,47.30
2023-08-26T18:09:12.395Z,46.90
2023-08-26T18:11:39.773Z,47.20
2023-08-26T18:14:07.103Z,46.70
2023-08-26T18:16:34.472Z,46.50
2023-08-26T18:19:03.145Z,46.60
2023-08-26T18:21:30.517Z,47.30
2023-08-26T18:23:57.850Z,47.30
2023-08-26T18:26:25.147Z,47.20
2023-08-26T18:28:52.514Z,47.10
2023-08-26T18:31:19.872Z,47.60
2023-08-26T18:33:47.728Z,47.20
2023-08-26T18:36:16.483Z,47.20
2023-08-26T18:38:43.990Z,47.60
2023-08-26T18:41:11.308Z,47.50
2023-08-26T18:43:38.728Z,48.10
2023-08-26T18:46:06.064Z,48.20
2023-08-26T18:48:33.422Z,48.20
2023-08-26T18:51:02.175Z,47.90
2023-08-26T18:53:32.790Z,48.30
2023-08-26T18:56:01.022Z,48.10
2023-08-26T18:58:28.512Z,48.30
2023-08-26T19:00:57.148Z,48.40
2023-08-26T19:03:24.680Z,48.40
2023-08-26T19:05:52.623Z,48.60
2023-08-26T19:08:20.232Z,48.50
2023-08-26T19:10:49.171Z,48.60
2023-08-26T19:13:16.563Z,48.70
2023-08-26T19:15:44.042Z,48.80
2023-08-26T19:18:11.427Z,48.90
2023-08-26T19:20:39.149Z,49.10
2023-08-26T19:23:07.261Z,49.20
2023-08-26T19:25:35.567Z,49.40
2023-08-26T19:28:04.739Z,49.40
2023-08-26T19:30:32.442Z,49.60
2023-08-26T19:33:00.152Z,49.60
2023-08-26T19:35:27.874Z,49.70
2023-08-26T19:37:55.238Z,49.90
2023-08-26T19:40:22.567Z,49.80
2023-08-26T19:42:49.935Z,50.00
2023-08-26T19:45:19.544Z,49.80
2023-08-26T19:47:47.062Z,49.70
2023-08-26T19:50:15.533Z,49.80
2023-08-26T19:52:44.465Z,50.00
2023-08-26T19:55:12.203Z,50.10
2023-08-26T19:57:42.081Z,50.20
2023-08-26T20:00:11.980Z,50.10
2023-08-26T20:02:44.427Z,50.20
2023-08-26T20:05:11.799Z,50.20
2023-08-26T20:07:39.159Z,50.30
2023-08-26T20:10:07.784Z,50.30
2023-08-26T20:12:35.164Z,50.50
2023-08-26T20:15:03.987Z,50.50
2023-08-26T20:17:32.317Z,50.80
2023-08-26T20:20:01.128Z,51.10
2023-08-26T20:22:28.561Z,51.00
2023-08-26T20:24:57.881Z,51.20
2023-08-26T20:27:25.207Z,51.70
2023-08-26T20:29:52.683Z,51.40
2023-08-26T20:32:19.984Z,51.40
2023-08-26T20:34:47.291Z,51.50
2023-08-26T20:37:16.002Z,51.60
2023-08-26T20:39:44.234Z,51.70
2023-08-26T20:42:11.688Z,51.90
2023-08-26T20:44:39.222Z,52.10
2023-08-26T20:47:06.748Z,52.20
2023-08-26T20:49:34.095Z,52.40
2023-08-26T20:52:01.497Z,52.30
2023-08-26T20:54:30.180Z,52.40
2023-08-26T20:56:57.532Z,52.30
2023-08-26T20:59:25.676Z,52.10
2023-08-26T21:01:53.246Z,52.40
2023-08-26T21:04:20.712Z,52.30
2023-08-26T21:06:48.098Z,52.80
2023-08-26T21:09:15.870Z,52.70
2023-08-26T21:11:46.294Z,52.70
2023-08-26T21:14:13.651Z,52.80
2023-08-26T21:16:40.994Z,52.60
2023-08-26T21:19:08.585Z,53.20
2023-08-26T21:21:35.927Z,53.20
2023-08-26T21:24:03.714Z,53.50
2023-08-26T21:26:31.106Z,53.50
2023-08-26T21:28:59.809Z,53.80
2023-08-26T21:31:27.352Z,53.90
2023-08-26T21:33:54.784Z,54.10
2023-08-26T21:36:23.482Z,54.30
2023-08-26T21:38:51.039Z,54.30
2023-08-26T21:41:18.360Z,54.20
2023-08-26T21:43:45.846Z,54.40
2023-08-26T21:46:14.606Z,54.30
2023-08-26T21:48:42.035Z,55.10
2023-08-26T21:51:09.412Z,54.70
2023-08-26T21:53:36.693Z,54.90
2023-08-26T21:56:04.333Z,54.70
2023-08-26T21:58:31.645Z,55.80
2023-08-26T22:01:00.749Z,55.70
2023-08-26T22:03:29.494Z,56.00
2023-08-26T22:05:56.907Z,55.60
2023-08-26T22:08:25.123Z,55.70
2023-08-26T22:10:52.483Z,55.40
2023-08-26T22:13:21.862Z,55.50
2023-08-26T22:15:51.636Z,55.50
2023-08-26T22:18:19.063Z,55.70
2023-08-26T22:20:47.748Z,56.20
2023-08-26T22:23:15.076Z,56.00
2023-08-26T22:25:42.388Z,56.00
2023-08-26T22:28:09.752Z,56.10
2023-08-26T22:30:37.921Z,55.50
2023-08-26T22:33:06.311Z,56.10
2023-08-26T22:35:33.759Z,56.00
2023-08-26T22:38:05.054Z,56.00
2023-08-26T22:40:32.511Z,55.70
2023-08-26T22:43:00.143Z,55.80
2023-08-26T22:45:27.751Z,55.60
2023-08-26T22:47:55.182Z,56.20
2023-08-26T22:50:22.496Z,55.80
2023-08-26T22:52:49.936Z,55.80
2023-08-26T22:55:18.822Z,56.20
2023-08-26T22:57:46.612Z,56.10
2023-08-26T23:00:14.538Z,56.50
2023-08-26T23:02:41.943Z,56.80
2023-08-26T23:05:09.435Z,56.80
2023-08-26T23:07:36.846Z,56.70
2023-08-26T23:10:05.698Z,56.50
2023-08-26T23:12:34.653Z,56.50
2023-08-26T23:15:02.137Z,56.50
2023-08-26T23:17:29.563Z,57.40
2023-08-26T23:19:57.156Z,57.60
2023-08-26T23:22:24.653Z,57.80
2023-08-26T23:24:51.926Z,57.80
2023-08-26T23:27:20.544Z,57.80
2023-08-26T23:29:49.498Z,57.70
2023-08-26T23:32:17.493Z,57.70
2023-08-26T23:34:45.016Z,56.90
2023-08-26T23:37:12.332Z,57.80
2023-08-26T23:39:39.620Z,57.00
2023-08-26T23:42:07.284Z,56.90
2023-08-26T23:44:34.625Z,57.40
2023-08-26T23:47:03.340Z,57.80
2023-08-26T23:49:31.141Z,58.00
2023-08-26T23:51:58.438Z,58.60
2023-08-26T23:54:25.733Z,58.50
2023-08-26T23:56:53.415Z,59.20
2023-08-26T23:59:20.751Z,58.80
